<?xml version="1.0" encoding="UTF-8" standalone="no" ?>
<gpx xmlns="http://www.topografix.com/GPX/1/1" xmlns:xsi="http://www.w3.org/2001/XMLSchema-instance" xsi:schemaLocation="http://www.topografix.com/GPX/1/1 http://www.topografix.com/GPX/1/1/gpx.xsd" version="1.1" creator="VisuGPX - https://www.visugpx.com">
  <metadata>
    <name>De Sorges à Périgueux</name>
    <desc><![CDATA[LE CHEMIN VERS COMPOSTELLE, LA VOIE DE VEZELAY d'EGUZON A ST JEAN-PIED-DE-PORT]]></desc>
  </metadata>
  <trk>
    <name><![CDATA[9552597-Sorges - Périgueux]]></name>
    <trkseg>
      <trkpt lat="45.307" lon="0.87203">
        <ele>181</ele>
        <time>2019-02-08T15:36:41Z</time>
      </trkpt>
      <trkpt lat="45.30684" lon="0.87203">
        <ele>181</ele>
        <time>2019-02-08T15:37:41Z</time>
      </trkpt>
      <trkpt lat="45.30668" lon="0.87226">
        <ele>181</ele>
        <time>2019-02-08T15:38:41Z</time>
      </trkpt>
      <trkpt lat="45.30658" lon="0.87251">
        <ele>181</ele>
        <time>2019-02-08T15:39:41Z</time>
      </trkpt>
      <trkpt lat="45.30655" lon="0.87263">
        <ele>180</ele>
        <time>2019-02-08T15:40:41Z</time>
      </trkpt>
      <trkpt lat="45.30634" lon="0.87279">
        <ele>179</ele>
        <time>2019-02-08T15:41:41Z</time>
      </trkpt>
      <trkpt lat="45.30621" lon="0.87294">
        <ele>179</ele>
        <time>2019-02-08T15:42:41Z</time>
      </trkpt>
      <trkpt lat="45.30606" lon="0.87321">
        <ele>178</ele>
        <time>2019-02-08T15:43:41Z</time>
      </trkpt>
      <trkpt lat="45.30568" lon="0.87303">
        <ele>177</ele>
        <time>2019-02-08T15:44:41Z</time>
      </trkpt>
      <trkpt lat="45.30523" lon="0.87282">
        <ele>174</ele>
        <time>2019-02-08T15:45:41Z</time>
      </trkpt>
      <trkpt lat="45.30509" lon="0.87275">
        <ele>174</ele>
        <time>2019-02-08T15:46:41Z</time>
      </trkpt>
      <trkpt lat="45.30497" lon="0.87256">
        <ele>174</ele>
        <time>2019-02-08T15:47:41Z</time>
      </trkpt>
      <trkpt lat="45.30467" lon="0.87247">
        <ele>174</ele>
        <time>2019-02-08T15:48:41Z</time>
      </trkpt>
      <trkpt lat="45.30422" lon="0.8725">
        <ele>175</ele>
        <time>2019-02-08T15:49:41Z</time>
      </trkpt>
      <trkpt lat="45.30387" lon="0.8726">
        <ele>175</ele>
        <time>2019-02-08T15:50:41Z</time>
      </trkpt>
      <trkpt lat="45.30372" lon="0.87201">
        <ele>176</ele>
        <time>2019-02-08T15:51:41Z</time>
      </trkpt>
      <trkpt lat="45.30362" lon="0.87153">
        <ele>176</ele>
        <time>2019-02-08T15:52:41Z</time>
      </trkpt>
      <trkpt lat="45.30311" lon="0.8711">
        <ele>174</ele>
        <time>2019-02-08T15:53:41Z</time>
      </trkpt>
      <trkpt lat="45.3027" lon="0.87103">
        <ele>173</ele>
        <time>2019-02-08T15:54:41Z</time>
      </trkpt>
      <trkpt lat="45.302" lon="0.87073">
        <ele>171</ele>
        <time>2019-02-08T15:55:41Z</time>
      </trkpt>
      <trkpt lat="45.3017" lon="0.87068">
        <ele>170</ele>
        <time>2019-02-08T15:56:41Z</time>
      </trkpt>
      <trkpt lat="45.30118" lon="0.87012">
        <ele>168</ele>
        <time>2019-02-08T15:57:41Z</time>
      </trkpt>
      <trkpt lat="45.30098" lon="0.87006">
        <ele>167</ele>
        <time>2019-02-08T15:58:41Z</time>
      </trkpt>
      <trkpt lat="45.30082" lon="0.86958">
        <ele>164</ele>
        <time>2019-02-08T15:59:41Z</time>
      </trkpt>
      <trkpt lat="45.30075" lon="0.86912">
        <ele>161</ele>
        <time>2019-02-08T16:00:41Z</time>
      </trkpt>
      <trkpt lat="45.30023" lon="0.86874">
        <ele>159</ele>
        <time>2019-02-08T16:01:41Z</time>
      </trkpt>
      <trkpt lat="45.29985" lon="0.86835">
        <ele>156</ele>
        <time>2019-02-08T16:02:41Z</time>
      </trkpt>
      <trkpt lat="45.2996" lon="0.86795">
        <ele>155</ele>
        <time>2019-02-08T16:03:41Z</time>
      </trkpt>
      <trkpt lat="45.29929" lon="0.86784">
        <ele>155</ele>
        <time>2019-02-08T16:04:41Z</time>
      </trkpt>
      <trkpt lat="45.29839" lon="0.86779">
        <ele>153</ele>
        <time>2019-02-08T16:05:41Z</time>
      </trkpt>
      <trkpt lat="45.29814" lon="0.86764">
        <ele>153</ele>
        <time>2019-02-08T16:06:41Z</time>
      </trkpt>
      <trkpt lat="45.29789" lon="0.86761">
        <ele>153</ele>
        <time>2019-02-08T16:07:41Z</time>
      </trkpt>
      <trkpt lat="45.29717" lon="0.86721">
        <ele>153</ele>
        <time>2019-02-08T16:08:41Z</time>
      </trkpt>
      <trkpt lat="45.29681" lon="0.86664">
        <ele>153</ele>
        <time>2019-02-08T16:09:41Z</time>
      </trkpt>
      <trkpt lat="45.29631" lon="0.86603">
        <ele>152</ele>
        <time>2019-02-08T16:10:41Z</time>
      </trkpt>
      <trkpt lat="45.29558" lon="0.86516">
        <ele>153</ele>
        <time>2019-02-08T16:11:41Z</time>
      </trkpt>
      <trkpt lat="45.29518" lon="0.86473">
        <ele>156</ele>
        <time>2019-02-08T16:12:41Z</time>
      </trkpt>
      <trkpt lat="45.29468" lon="0.86425">
        <ele>156</ele>
        <time>2019-02-08T16:13:41Z</time>
      </trkpt>
      <trkpt lat="45.29452" lon="0.86389">
        <ele>153</ele>
        <time>2019-02-08T16:14:41Z</time>
      </trkpt>
      <trkpt lat="45.29427" lon="0.86351">
        <ele>150</ele>
        <time>2019-02-08T16:15:41Z</time>
      </trkpt>
      <trkpt lat="45.29367" lon="0.86348">
        <ele>149</ele>
        <time>2019-02-08T16:16:41Z</time>
      </trkpt>
      <trkpt lat="45.29335" lon="0.86333">
        <ele>147</ele>
        <time>2019-02-08T16:17:41Z</time>
      </trkpt>
      <trkpt lat="45.29321" lon="0.86302">
        <ele>147</ele>
        <time>2019-02-08T16:18:41Z</time>
      </trkpt>
      <trkpt lat="45.2931" lon="0.86274">
        <ele>146</ele>
        <time>2019-02-08T16:19:41Z</time>
      </trkpt>
      <trkpt lat="45.29276" lon="0.86264">
        <ele>146</ele>
        <time>2019-02-08T16:20:41Z</time>
      </trkpt>
      <trkpt lat="45.29236" lon="0.86251">
        <ele>146</ele>
        <time>2019-02-08T16:21:41Z</time>
      </trkpt>
      <trkpt lat="45.29206" lon="0.86218">
        <ele>150</ele>
        <time>2019-02-08T16:22:41Z</time>
      </trkpt>
      <trkpt lat="45.29159" lon="0.86192">
        <ele>155</ele>
        <time>2019-02-08T16:23:41Z</time>
      </trkpt>
      <trkpt lat="45.29138" lon="0.86172">
        <ele>156</ele>
        <time>2019-02-08T16:24:41Z</time>
      </trkpt>
      <trkpt lat="45.29118" lon="0.86136">
        <ele>157</ele>
        <time>2019-02-08T16:25:41Z</time>
      </trkpt>
      <trkpt lat="45.29093" lon="0.86103">
        <ele>157</ele>
        <time>2019-02-08T16:26:41Z</time>
      </trkpt>
      <trkpt lat="45.29062" lon="0.86078">
        <ele>156</ele>
        <time>2019-02-08T16:27:41Z</time>
      </trkpt>
      <trkpt lat="45.29016" lon="0.86039">
        <ele>154</ele>
        <time>2019-02-08T16:28:41Z</time>
      </trkpt>
      <trkpt lat="45.28962" lon="0.85981">
        <ele>155</ele>
        <time>2019-02-08T16:29:41Z</time>
      </trkpt>
      <trkpt lat="45.28807" lon="0.85914">
        <ele>159</ele>
        <time>2019-02-08T16:30:41Z</time>
      </trkpt>
      <trkpt lat="45.28793" lon="0.85958">
        <ele>158</ele>
        <time>2019-02-08T16:31:41Z</time>
      </trkpt>
      <trkpt lat="45.28768" lon="0.85894">
        <ele>158</ele>
        <time>2019-02-08T16:32:41Z</time>
      </trkpt>
      <trkpt lat="45.28732" lon="0.85822">
        <ele>160</ele>
        <time>2019-02-08T16:33:41Z</time>
      </trkpt>
      <trkpt lat="45.28712" lon="0.85812">
        <ele>161</ele>
        <time>2019-02-08T16:34:41Z</time>
      </trkpt>
      <trkpt lat="45.28649" lon="0.85891">
        <ele>161</ele>
        <time>2019-02-08T16:35:41Z</time>
      </trkpt>
      <trkpt lat="45.28583" lon="0.85937">
        <ele>162</ele>
        <time>2019-02-08T16:36:41Z</time>
      </trkpt>
      <trkpt lat="45.28537" lon="0.85953">
        <ele>163</ele>
        <time>2019-02-08T16:37:41Z</time>
      </trkpt>
      <trkpt lat="45.28512" lon="0.85963">
        <ele>164</ele>
        <time>2019-02-08T16:38:41Z</time>
      </trkpt>
      <trkpt lat="45.2844" lon="0.85957">
        <ele>162</ele>
        <time>2019-02-08T16:39:41Z</time>
      </trkpt>
      <trkpt lat="45.28338" lon="0.85943">
        <ele>153</ele>
        <time>2019-02-08T16:40:41Z</time>
      </trkpt>
      <trkpt lat="45.28309" lon="0.85954">
        <ele>152</ele>
        <time>2019-02-08T16:41:41Z</time>
      </trkpt>
      <trkpt lat="45.28223" lon="0.85987">
        <ele>149</ele>
        <time>2019-02-08T16:42:41Z</time>
      </trkpt>
      <trkpt lat="45.28193" lon="0.86016">
        <ele>148</ele>
        <time>2019-02-08T16:43:41Z</time>
      </trkpt>
      <trkpt lat="45.28131" lon="0.86077">
        <ele>146</ele>
        <time>2019-02-08T16:44:41Z</time>
      </trkpt>
      <trkpt lat="45.28078" lon="0.86116">
        <ele>144</ele>
        <time>2019-02-08T16:45:41Z</time>
      </trkpt>
      <trkpt lat="45.28022" lon="0.86151">
        <ele>140</ele>
        <time>2019-02-08T16:46:41Z</time>
      </trkpt>
      <trkpt lat="45.27988" lon="0.86177">
        <ele>138</ele>
        <time>2019-02-08T16:47:41Z</time>
      </trkpt>
      <trkpt lat="45.27952" lon="0.86174">
        <ele>136</ele>
        <time>2019-02-08T16:48:41Z</time>
      </trkpt>
      <trkpt lat="45.2788" lon="0.86169">
        <ele>135</ele>
        <time>2019-02-08T16:49:41Z</time>
      </trkpt>
      <trkpt lat="45.27857" lon="0.8616">
        <ele>135</ele>
        <time>2019-02-08T16:50:41Z</time>
      </trkpt>
      <trkpt lat="45.27855" lon="0.86083">
        <ele>139</ele>
        <time>2019-02-08T16:51:41Z</time>
      </trkpt>
      <trkpt lat="45.27856" lon="0.86056">
        <ele>140</ele>
        <time>2019-02-08T16:52:41Z</time>
      </trkpt>
      <trkpt lat="45.27844" lon="0.85957">
        <ele>141</ele>
        <time>2019-02-08T16:53:41Z</time>
      </trkpt>
      <trkpt lat="45.27847" lon="0.85878">
        <ele>142</ele>
        <time>2019-02-08T16:54:41Z</time>
      </trkpt>
      <trkpt lat="45.27856" lon="0.85817">
        <ele>142</ele>
        <time>2019-02-08T16:55:41Z</time>
      </trkpt>
      <trkpt lat="45.27855" lon="0.85798">
        <ele>142</ele>
        <time>2019-02-08T16:56:41Z</time>
      </trkpt>
      <trkpt lat="45.27824" lon="0.85693">
        <ele>144</ele>
        <time>2019-02-08T16:57:41Z</time>
      </trkpt>
      <trkpt lat="45.2783" lon="0.85637">
        <ele>145</ele>
        <time>2019-02-08T16:58:41Z</time>
      </trkpt>
      <trkpt lat="45.27824" lon="0.85596">
        <ele>147</ele>
        <time>2019-02-08T16:59:41Z</time>
      </trkpt>
      <trkpt lat="45.27815" lon="0.85544">
        <ele>149</ele>
        <time>2019-02-08T17:00:41Z</time>
      </trkpt>
      <trkpt lat="45.27806" lon="0.85515">
        <ele>151</ele>
        <time>2019-02-08T17:01:41Z</time>
      </trkpt>
      <trkpt lat="45.27802" lon="0.85491">
        <ele>152</ele>
        <time>2019-02-08T17:02:41Z</time>
      </trkpt>
      <trkpt lat="45.27783" lon="0.85461">
        <ele>153</ele>
        <time>2019-02-08T17:03:41Z</time>
      </trkpt>
      <trkpt lat="45.27768" lon="0.85397">
        <ele>156</ele>
        <time>2019-02-08T17:04:41Z</time>
      </trkpt>
      <trkpt lat="45.27783" lon="0.85327">
        <ele>158</ele>
        <time>2019-02-08T17:05:41Z</time>
      </trkpt>
      <trkpt lat="45.27699" lon="0.85291">
        <ele>160</ele>
        <time>2019-02-08T17:06:41Z</time>
      </trkpt>
      <trkpt lat="45.27654" lon="0.85282">
        <ele>159</ele>
        <time>2019-02-08T17:07:41Z</time>
      </trkpt>
      <trkpt lat="45.27585" lon="0.85277">
        <ele>159</ele>
        <time>2019-02-08T17:08:41Z</time>
      </trkpt>
      <trkpt lat="45.27463" lon="0.85312">
        <ele>160</ele>
        <time>2019-02-08T17:09:41Z</time>
      </trkpt>
      <trkpt lat="45.27426" lon="0.85324">
        <ele>158</ele>
        <time>2019-02-08T17:10:41Z</time>
      </trkpt>
      <trkpt lat="45.27379" lon="0.85323">
        <ele>156</ele>
        <time>2019-02-08T17:11:41Z</time>
      </trkpt>
      <trkpt lat="45.27348" lon="0.8532">
        <ele>155</ele>
        <time>2019-02-08T17:12:41Z</time>
      </trkpt>
      <trkpt lat="45.27336" lon="0.85329">
        <ele>154</ele>
        <time>2019-02-08T17:13:41Z</time>
      </trkpt>
      <trkpt lat="45.2733" lon="0.8535">
        <ele>154</ele>
        <time>2019-02-08T17:14:41Z</time>
      </trkpt>
      <trkpt lat="45.27313" lon="0.85374">
        <ele>154</ele>
        <time>2019-02-08T17:15:41Z</time>
      </trkpt>
      <trkpt lat="45.27251" lon="0.854">
        <ele>150</ele>
        <time>2019-02-08T17:16:41Z</time>
      </trkpt>
      <trkpt lat="45.27208" lon="0.85408">
        <ele>152</ele>
        <time>2019-02-08T17:17:41Z</time>
      </trkpt>
      <trkpt lat="45.27182" lon="0.85405">
        <ele>153</ele>
        <time>2019-02-08T17:18:41Z</time>
      </trkpt>
      <trkpt lat="45.27149" lon="0.85397">
        <ele>155</ele>
        <time>2019-02-08T17:19:41Z</time>
      </trkpt>
      <trkpt lat="45.27111" lon="0.85329">
        <ele>158</ele>
        <time>2019-02-08T17:20:41Z</time>
      </trkpt>
      <trkpt lat="45.27103" lon="0.853">
        <ele>158</ele>
        <time>2019-02-08T17:21:41Z</time>
      </trkpt>
      <trkpt lat="45.27079" lon="0.8527">
        <ele>158</ele>
        <time>2019-02-08T17:22:41Z</time>
      </trkpt>
      <trkpt lat="45.27021" lon="0.85258">
        <ele>156</ele>
        <time>2019-02-08T17:23:41Z</time>
      </trkpt>
      <trkpt lat="45.26898" lon="0.85156">
        <ele>144</ele>
        <time>2019-02-08T17:24:41Z</time>
      </trkpt>
      <trkpt lat="45.26822" lon="0.85159">
        <ele>144</ele>
        <time>2019-02-08T17:25:41Z</time>
      </trkpt>
      <trkpt lat="45.26783" lon="0.8517">
        <ele>143</ele>
        <time>2019-02-08T17:26:41Z</time>
      </trkpt>
      <trkpt lat="45.26713" lon="0.85198">
        <ele>143</ele>
        <time>2019-02-08T17:27:41Z</time>
      </trkpt>
      <trkpt lat="45.26608" lon="0.85268">
        <ele>141</ele>
        <time>2019-02-08T17:28:41Z</time>
      </trkpt>
      <trkpt lat="45.26599" lon="0.85242">
        <ele>142</ele>
        <time>2019-02-08T17:29:41Z</time>
      </trkpt>
      <trkpt lat="45.2658" lon="0.85195">
        <ele>141</ele>
        <time>2019-02-08T17:30:41Z</time>
      </trkpt>
      <trkpt lat="45.26551" lon="0.85182">
        <ele>141</ele>
        <time>2019-02-08T17:31:41Z</time>
      </trkpt>
      <trkpt lat="45.26519" lon="0.85165">
        <ele>141</ele>
        <time>2019-02-08T17:32:41Z</time>
      </trkpt>
      <trkpt lat="45.26454" lon="0.85072">
        <ele>146</ele>
        <time>2019-02-08T17:33:41Z</time>
      </trkpt>
      <trkpt lat="45.26418" lon="0.85034">
        <ele>150</ele>
        <time>2019-02-08T17:34:41Z</time>
      </trkpt>
      <trkpt lat="45.26411" lon="0.84977">
        <ele>153</ele>
        <time>2019-02-08T17:35:41Z</time>
      </trkpt>
      <trkpt lat="45.26419" lon="0.8494">
        <ele>155</ele>
        <time>2019-02-08T17:36:41Z</time>
      </trkpt>
      <trkpt lat="45.2639" lon="0.8494">
        <ele>153</ele>
        <time>2019-02-08T17:37:41Z</time>
      </trkpt>
      <trkpt lat="45.26336" lon="0.84966">
        <ele>151</ele>
        <time>2019-02-08T17:38:41Z</time>
      </trkpt>
      <trkpt lat="45.26269" lon="0.84971">
        <ele>147</ele>
        <time>2019-02-08T17:39:41Z</time>
      </trkpt>
      <trkpt lat="45.26238" lon="0.84997">
        <ele>145</ele>
        <time>2019-02-08T17:40:41Z</time>
      </trkpt>
      <trkpt lat="45.26233" lon="0.84927">
        <ele>144</ele>
        <time>2019-02-08T17:41:41Z</time>
      </trkpt>
      <trkpt lat="45.26225" lon="0.84886">
        <ele>144</ele>
        <time>2019-02-08T17:42:41Z</time>
      </trkpt>
      <trkpt lat="45.26179" lon="0.84822">
        <ele>145</ele>
        <time>2019-02-08T17:43:41Z</time>
      </trkpt>
      <trkpt lat="45.26146" lon="0.84807">
        <ele>146</ele>
        <time>2019-02-08T17:44:41Z</time>
      </trkpt>
      <trkpt lat="45.26139" lon="0.84786">
        <ele>147</ele>
        <time>2019-02-08T17:45:41Z</time>
      </trkpt>
      <trkpt lat="45.2614" lon="0.84764">
        <ele>148</ele>
        <time>2019-02-08T17:46:41Z</time>
      </trkpt>
      <trkpt lat="45.26131" lon="0.84763">
        <ele>148</ele>
        <time>2019-02-08T17:47:41Z</time>
      </trkpt>
      <trkpt lat="45.2613" lon="0.84687">
        <ele>150</ele>
        <time>2019-02-08T17:48:41Z</time>
      </trkpt>
      <trkpt lat="45.26118" lon="0.84679">
        <ele>150</ele>
        <time>2019-02-08T17:49:41Z</time>
      </trkpt>
      <trkpt lat="45.26113" lon="0.84643">
        <ele>150</ele>
        <time>2019-02-08T17:50:41Z</time>
      </trkpt>
      <trkpt lat="45.26113" lon="0.84582">
        <ele>149</ele>
        <time>2019-02-08T17:51:41Z</time>
      </trkpt>
      <trkpt lat="45.26149" lon="0.84478">
        <ele>151</ele>
        <time>2019-02-08T17:52:41Z</time>
      </trkpt>
      <trkpt lat="45.26152" lon="0.84441">
        <ele>152</ele>
        <time>2019-02-08T17:53:41Z</time>
      </trkpt>
      <trkpt lat="45.26121" lon="0.8423">
        <ele>154</ele>
        <time>2019-02-08T17:54:41Z</time>
      </trkpt>
      <trkpt lat="45.26095" lon="0.84202">
        <ele>152</ele>
        <time>2019-02-08T17:55:41Z</time>
      </trkpt>
      <trkpt lat="45.26071" lon="0.84174">
        <ele>151</ele>
        <time>2019-02-08T17:56:41Z</time>
      </trkpt>
      <trkpt lat="45.26055" lon="0.84165">
        <ele>151</ele>
        <time>2019-02-08T17:57:41Z</time>
      </trkpt>
      <trkpt lat="45.25998" lon="0.84132">
        <ele>149</ele>
        <time>2019-02-08T17:58:41Z</time>
      </trkpt>
      <trkpt lat="45.25966" lon="0.84101">
        <ele>151</ele>
        <time>2019-02-08T17:59:41Z</time>
      </trkpt>
      <trkpt lat="45.25935" lon="0.84051">
        <ele>152</ele>
        <time>2019-02-08T18:00:41Z</time>
      </trkpt>
      <trkpt lat="45.25906" lon="0.84041">
        <ele>154</ele>
        <time>2019-02-08T18:01:41Z</time>
      </trkpt>
      <trkpt lat="45.25911" lon="0.84013">
        <ele>153</ele>
        <time>2019-02-08T18:02:41Z</time>
      </trkpt>
      <trkpt lat="45.25907" lon="0.84006">
        <ele>153</ele>
        <time>2019-02-08T18:03:41Z</time>
      </trkpt>
      <trkpt lat="45.25944" lon="0.83954">
        <ele>154</ele>
        <time>2019-02-08T18:04:41Z</time>
      </trkpt>
      <trkpt lat="45.25955" lon="0.83936">
        <ele>154</ele>
        <time>2019-02-08T18:05:41Z</time>
      </trkpt>
      <trkpt lat="45.25968" lon="0.83912">
        <ele>154</ele>
        <time>2019-02-08T18:06:41Z</time>
      </trkpt>
      <trkpt lat="45.25936" lon="0.83793">
        <ele>155</ele>
        <time>2019-02-08T18:07:41Z</time>
      </trkpt>
      <trkpt lat="45.25895" lon="0.83804">
        <ele>156</ele>
        <time>2019-02-08T18:08:41Z</time>
      </trkpt>
      <trkpt lat="45.25866" lon="0.83719">
        <ele>155</ele>
        <time>2019-02-08T18:09:41Z</time>
      </trkpt>
      <trkpt lat="45.25834" lon="0.83657">
        <ele>160</ele>
        <time>2019-02-08T18:10:41Z</time>
      </trkpt>
      <trkpt lat="45.25815" lon="0.83561">
        <ele>164</ele>
        <time>2019-02-08T18:11:41Z</time>
      </trkpt>
      <trkpt lat="45.25791" lon="0.83507">
        <ele>167</ele>
        <time>2019-02-08T18:12:41Z</time>
      </trkpt>
      <trkpt lat="45.2579" lon="0.83438">
        <ele>168</ele>
        <time>2019-02-08T18:13:41Z</time>
      </trkpt>
      <trkpt lat="45.25803" lon="0.83375">
        <ele>170</ele>
        <time>2019-02-08T18:14:41Z</time>
      </trkpt>
      <trkpt lat="45.2573" lon="0.83331">
        <ele>180</ele>
        <time>2019-02-08T18:15:41Z</time>
      </trkpt>
      <trkpt lat="45.25523" lon="0.83212">
        <ele>187</ele>
        <time>2019-02-08T18:16:41Z</time>
      </trkpt>
      <trkpt lat="45.25501" lon="0.8318">
        <ele>189</ele>
        <time>2019-02-08T18:17:41Z</time>
      </trkpt>
      <trkpt lat="45.25472" lon="0.83168">
        <ele>191</ele>
        <time>2019-02-08T18:18:41Z</time>
      </trkpt>
      <trkpt lat="45.25444" lon="0.83149">
        <ele>192</ele>
        <time>2019-02-08T18:19:41Z</time>
      </trkpt>
      <trkpt lat="45.25443" lon="0.83119">
        <ele>192</ele>
        <time>2019-02-08T18:20:41Z</time>
      </trkpt>
      <trkpt lat="45.25436" lon="0.83081">
        <ele>192</ele>
        <time>2019-02-08T18:21:41Z</time>
      </trkpt>
      <trkpt lat="45.25409" lon="0.83069">
        <ele>191</ele>
        <time>2019-02-08T18:22:41Z</time>
      </trkpt>
      <trkpt lat="45.25394" lon="0.83066">
        <ele>189</ele>
        <time>2019-02-08T18:23:41Z</time>
      </trkpt>
      <trkpt lat="45.25385" lon="0.83042">
        <ele>188</ele>
        <time>2019-02-08T18:24:41Z</time>
      </trkpt>
      <trkpt lat="45.25377" lon="0.82978">
        <ele>187</ele>
        <time>2019-02-08T18:25:41Z</time>
      </trkpt>
      <trkpt lat="45.25363" lon="0.82955">
        <ele>184</ele>
        <time>2019-02-08T18:26:41Z</time>
      </trkpt>
      <trkpt lat="45.25341" lon="0.82934">
        <ele>183</ele>
        <time>2019-02-08T18:27:41Z</time>
      </trkpt>
      <trkpt lat="45.25318" lon="0.82864">
        <ele>179</ele>
        <time>2019-02-08T18:28:41Z</time>
      </trkpt>
      <trkpt lat="45.25283" lon="0.82819">
        <ele>176</ele>
        <time>2019-02-08T18:29:41Z</time>
      </trkpt>
      <trkpt lat="45.2524" lon="0.8277">
        <ele>173</ele>
        <time>2019-02-08T18:30:41Z</time>
      </trkpt>
      <trkpt lat="45.25204" lon="0.82753">
        <ele>174</ele>
        <time>2019-02-08T18:31:41Z</time>
      </trkpt>
      <trkpt lat="45.25164" lon="0.82743">
        <ele>175</ele>
        <time>2019-02-08T18:32:41Z</time>
      </trkpt>
      <trkpt lat="45.25134" lon="0.82714">
        <ele>172</ele>
        <time>2019-02-08T18:33:41Z</time>
      </trkpt>
      <trkpt lat="45.25094" lon="0.82672">
        <ele>173</ele>
        <time>2019-02-08T18:34:41Z</time>
      </trkpt>
      <trkpt lat="45.25068" lon="0.82668">
        <ele>173</ele>
        <time>2019-02-08T18:35:41Z</time>
      </trkpt>
      <trkpt lat="45.25045" lon="0.82647">
        <ele>174</ele>
        <time>2019-02-08T18:36:41Z</time>
      </trkpt>
      <trkpt lat="45.25014" lon="0.82587">
        <ele>178</ele>
        <time>2019-02-08T18:37:41Z</time>
      </trkpt>
      <trkpt lat="45.24942" lon="0.82508">
        <ele>178</ele>
        <time>2019-02-08T18:38:41Z</time>
      </trkpt>
      <trkpt lat="45.24898" lon="0.82447">
        <ele>172</ele>
        <time>2019-02-08T18:39:41Z</time>
      </trkpt>
      <trkpt lat="45.24873" lon="0.82398">
        <ele>165</ele>
        <time>2019-02-08T18:40:41Z</time>
      </trkpt>
      <trkpt lat="45.24848" lon="0.82382">
        <ele>161</ele>
        <time>2019-02-08T18:41:41Z</time>
      </trkpt>
      <trkpt lat="45.24821" lon="0.8237">
        <ele>158</ele>
        <time>2019-02-08T18:42:41Z</time>
      </trkpt>
      <trkpt lat="45.24649" lon="0.82233">
        <ele>141</ele>
        <time>2019-02-08T18:43:41Z</time>
      </trkpt>
      <trkpt lat="45.24616" lon="0.82233">
        <ele>138</ele>
        <time>2019-02-08T18:44:41Z</time>
      </trkpt>
      <trkpt lat="45.24532" lon="0.82247">
        <ele>129</ele>
        <time>2019-02-08T18:45:41Z</time>
      </trkpt>
      <trkpt lat="45.24518" lon="0.8228">
        <ele>129</ele>
        <time>2019-02-08T18:46:41Z</time>
      </trkpt>
      <trkpt lat="45.24509" lon="0.82324">
        <ele>129</ele>
        <time>2019-02-08T18:47:41Z</time>
      </trkpt>
      <trkpt lat="45.24466" lon="0.82303">
        <ele>126</ele>
        <time>2019-02-08T18:48:41Z</time>
      </trkpt>
      <trkpt lat="45.24386" lon="0.8226">
        <ele>127</ele>
        <time>2019-02-08T18:49:41Z</time>
      </trkpt>
      <trkpt lat="45.24339" lon="0.82248">
        <ele>131</ele>
        <time>2019-02-08T18:50:41Z</time>
      </trkpt>
      <trkpt lat="45.24289" lon="0.82236">
        <ele>135</ele>
        <time>2019-02-08T18:51:41Z</time>
      </trkpt>
      <trkpt lat="45.2426" lon="0.82206">
        <ele>137</ele>
        <time>2019-02-08T18:52:41Z</time>
      </trkpt>
      <trkpt lat="45.24248" lon="0.8218">
        <ele>139</ele>
        <time>2019-02-08T18:53:41Z</time>
      </trkpt>
      <trkpt lat="45.24217" lon="0.82203">
        <ele>141</ele>
        <time>2019-02-08T18:54:41Z</time>
      </trkpt>
      <trkpt lat="45.24196" lon="0.8221">
        <ele>143</ele>
        <time>2019-02-08T18:55:41Z</time>
      </trkpt>
      <trkpt lat="45.24174" lon="0.82207">
        <ele>145</ele>
        <time>2019-02-08T18:56:41Z</time>
      </trkpt>
      <trkpt lat="45.24157" lon="0.82189">
        <ele>147</ele>
        <time>2019-02-08T18:57:41Z</time>
      </trkpt>
      <trkpt lat="45.24139" lon="0.82178">
        <ele>149</ele>
        <time>2019-02-08T18:58:41Z</time>
      </trkpt>
      <trkpt lat="45.24127" lon="0.82207">
        <ele>150</ele>
        <time>2019-02-08T18:59:41Z</time>
      </trkpt>
      <trkpt lat="45.24116" lon="0.82241">
        <ele>152</ele>
        <time>2019-02-08T19:00:41Z</time>
      </trkpt>
      <trkpt lat="45.24103" lon="0.82248">
        <ele>153</ele>
        <time>2019-02-08T19:01:41Z</time>
      </trkpt>
      <trkpt lat="45.24087" lon="0.82244">
        <ele>155</ele>
        <time>2019-02-08T19:02:41Z</time>
      </trkpt>
      <trkpt lat="45.24069" lon="0.82271">
        <ele>157</ele>
        <time>2019-02-08T19:03:41Z</time>
      </trkpt>
      <trkpt lat="45.2403" lon="0.82306">
        <ele>161</ele>
        <time>2019-02-08T19:04:41Z</time>
      </trkpt>
      <trkpt lat="45.2398" lon="0.82333">
        <ele>162</ele>
        <time>2019-02-08T19:05:41Z</time>
      </trkpt>
      <trkpt lat="45.23951" lon="0.82344">
        <ele>160</ele>
        <time>2019-02-08T19:06:41Z</time>
      </trkpt>
      <trkpt lat="45.23937" lon="0.8225">
        <ele>166</ele>
        <time>2019-02-08T19:07:41Z</time>
      </trkpt>
      <trkpt lat="45.23913" lon="0.82183">
        <ele>172</ele>
        <time>2019-02-08T19:08:41Z</time>
      </trkpt>
      <trkpt lat="45.23898" lon="0.82136">
        <ele>176</ele>
        <time>2019-02-08T19:09:41Z</time>
      </trkpt>
      <trkpt lat="45.23897" lon="0.82099">
        <ele>178</ele>
        <time>2019-02-08T19:10:41Z</time>
      </trkpt>
      <trkpt lat="45.23878" lon="0.82008">
        <ele>185</ele>
        <time>2019-02-08T19:11:41Z</time>
      </trkpt>
      <trkpt lat="45.23855" lon="0.81922">
        <ele>192</ele>
        <time>2019-02-08T19:12:41Z</time>
      </trkpt>
      <trkpt lat="45.23818" lon="0.81872">
        <ele>197</ele>
        <time>2019-02-08T19:13:41Z</time>
      </trkpt>
      <trkpt lat="45.23779" lon="0.81814">
        <ele>200</ele>
        <time>2019-02-08T19:14:41Z</time>
      </trkpt>
      <trkpt lat="45.23745" lon="0.81755">
        <ele>200</ele>
        <time>2019-02-08T19:15:41Z</time>
      </trkpt>
      <trkpt lat="45.23713" lon="0.81722">
        <ele>199</ele>
        <time>2019-02-08T19:16:41Z</time>
      </trkpt>
      <trkpt lat="45.23696" lon="0.81688">
        <ele>197</ele>
        <time>2019-02-08T19:17:41Z</time>
      </trkpt>
      <trkpt lat="45.23668" lon="0.81638">
        <ele>195</ele>
        <time>2019-02-08T19:18:41Z</time>
      </trkpt>
      <trkpt lat="45.23634" lon="0.81553">
        <ele>193</ele>
        <time>2019-02-08T19:19:41Z</time>
      </trkpt>
      <trkpt lat="45.2358" lon="0.81482">
        <ele>196</ele>
        <time>2019-02-08T19:20:41Z</time>
      </trkpt>
      <trkpt lat="45.23511" lon="0.81389">
        <ele>206</ele>
        <time>2019-02-08T19:21:41Z</time>
      </trkpt>
      <trkpt lat="45.23457" lon="0.81321">
        <ele>209</ele>
        <time>2019-02-08T19:22:41Z</time>
      </trkpt>
      <trkpt lat="45.23442" lon="0.81288">
        <ele>210</ele>
        <time>2019-02-08T19:23:41Z</time>
      </trkpt>
      <trkpt lat="45.2343" lon="0.81148">
        <ele>209</ele>
        <time>2019-02-08T19:24:41Z</time>
      </trkpt>
      <trkpt lat="45.2342" lon="0.81104">
        <ele>208</ele>
        <time>2019-02-08T19:25:41Z</time>
      </trkpt>
      <trkpt lat="45.2342" lon="0.81043">
        <ele>207</ele>
        <time>2019-02-08T19:26:41Z</time>
      </trkpt>
      <trkpt lat="45.23409" lon="0.81018">
        <ele>206</ele>
        <time>2019-02-08T19:27:41Z</time>
      </trkpt>
      <trkpt lat="45.2337" lon="0.80962">
        <ele>204</ele>
        <time>2019-02-08T19:28:41Z</time>
      </trkpt>
      <trkpt lat="45.23352" lon="0.80927">
        <ele>204</ele>
        <time>2019-02-08T19:29:41Z</time>
      </trkpt>
      <trkpt lat="45.23346" lon="0.80855">
        <ele>204</ele>
        <time>2019-02-08T19:30:41Z</time>
      </trkpt>
      <trkpt lat="45.23338" lon="0.80805">
        <ele>205</ele>
        <time>2019-02-08T19:31:41Z</time>
      </trkpt>
      <trkpt lat="45.23332" lon="0.80761">
        <ele>206</ele>
        <time>2019-02-08T19:32:41Z</time>
      </trkpt>
      <trkpt lat="45.23337" lon="0.80728">
        <ele>205</ele>
        <time>2019-02-08T19:33:41Z</time>
      </trkpt>
      <trkpt lat="45.23381" lon="0.80631">
        <ele>199</ele>
        <time>2019-02-08T19:34:41Z</time>
      </trkpt>
      <trkpt lat="45.23379" lon="0.8055">
        <ele>199</ele>
        <time>2019-02-08T19:35:41Z</time>
      </trkpt>
      <trkpt lat="45.23385" lon="0.80505">
        <ele>199</ele>
        <time>2019-02-08T19:36:41Z</time>
      </trkpt>
      <trkpt lat="45.23386" lon="0.80488">
        <ele>198</ele>
        <time>2019-02-08T19:37:41Z</time>
      </trkpt>
      <trkpt lat="45.2331" lon="0.80452">
        <ele>205</ele>
        <time>2019-02-08T19:38:41Z</time>
      </trkpt>
      <trkpt lat="45.23258" lon="0.80434">
        <ele>203</ele>
        <time>2019-02-08T19:39:41Z</time>
      </trkpt>
      <trkpt lat="45.23231" lon="0.80415">
        <ele>200</ele>
        <time>2019-02-08T19:40:41Z</time>
      </trkpt>
      <trkpt lat="45.23216" lon="0.80388">
        <ele>198</ele>
        <time>2019-02-08T19:41:41Z</time>
      </trkpt>
      <trkpt lat="45.23262" lon="0.80232">
        <ele>200</ele>
        <time>2019-02-08T19:42:41Z</time>
      </trkpt>
      <trkpt lat="45.2332" lon="0.80041">
        <ele>212</ele>
        <time>2019-02-08T19:43:41Z</time>
      </trkpt>
      <trkpt lat="45.2333" lon="0.79986">
        <ele>214</ele>
        <time>2019-02-08T19:44:41Z</time>
      </trkpt>
      <trkpt lat="45.23313" lon="0.79909">
        <ele>215</ele>
        <time>2019-02-08T19:45:41Z</time>
      </trkpt>
      <trkpt lat="45.23291" lon="0.79843">
        <ele>216</ele>
        <time>2019-02-08T19:46:41Z</time>
      </trkpt>
      <trkpt lat="45.23262" lon="0.79778">
        <ele>213</ele>
        <time>2019-02-08T19:47:41Z</time>
      </trkpt>
      <trkpt lat="45.23212" lon="0.79692">
        <ele>213</ele>
        <time>2019-02-08T19:48:41Z</time>
      </trkpt>
      <trkpt lat="45.23207" lon="0.79666">
        <ele>213</ele>
        <time>2019-02-08T19:49:41Z</time>
      </trkpt>
      <trkpt lat="45.23215" lon="0.79475">
        <ele>206</ele>
        <time>2019-02-08T19:50:41Z</time>
      </trkpt>
      <trkpt lat="45.23212" lon="0.79443">
        <ele>204</ele>
        <time>2019-02-08T19:51:41Z</time>
      </trkpt>
      <trkpt lat="45.23188" lon="0.79358">
        <ele>202</ele>
        <time>2019-02-08T19:52:41Z</time>
      </trkpt>
      <trkpt lat="45.2318" lon="0.79265">
        <ele>204</ele>
        <time>2019-02-08T19:53:41Z</time>
      </trkpt>
      <trkpt lat="45.23187" lon="0.79206">
        <ele>206</ele>
        <time>2019-02-08T19:54:41Z</time>
      </trkpt>
      <trkpt lat="45.23186" lon="0.79159">
        <ele>209</ele>
        <time>2019-02-08T19:55:41Z</time>
      </trkpt>
      <trkpt lat="45.23195" lon="0.79106">
        <ele>208</ele>
        <time>2019-02-08T19:56:41Z</time>
      </trkpt>
      <trkpt lat="45.23191" lon="0.79059">
        <ele>207</ele>
        <time>2019-02-08T19:57:41Z</time>
      </trkpt>
      <trkpt lat="45.23171" lon="0.78948">
        <ele>206</ele>
        <time>2019-02-08T19:58:41Z</time>
      </trkpt>
      <trkpt lat="45.23191" lon="0.78915">
        <ele>206</ele>
        <time>2019-02-08T19:59:41Z</time>
      </trkpt>
      <trkpt lat="45.23189" lon="0.78848">
        <ele>204</ele>
        <time>2019-02-08T20:00:41Z</time>
      </trkpt>
      <trkpt lat="45.23187" lon="0.7878">
        <ele>201</ele>
        <time>2019-02-08T20:01:41Z</time>
      </trkpt>
      <trkpt lat="45.23187" lon="0.7874">
        <ele>200</ele>
        <time>2019-02-08T20:02:41Z</time>
      </trkpt>
      <trkpt lat="45.23179" lon="0.78704">
        <ele>198</ele>
        <time>2019-02-08T20:03:41Z</time>
      </trkpt>
      <trkpt lat="45.23121" lon="0.7872">
        <ele>193</ele>
        <time>2019-02-08T20:04:41Z</time>
      </trkpt>
      <trkpt lat="45.23097" lon="0.78739">
        <ele>191</ele>
        <time>2019-02-08T20:05:41Z</time>
      </trkpt>
      <trkpt lat="45.23055" lon="0.78707">
        <ele>189</ele>
        <time>2019-02-08T20:06:41Z</time>
      </trkpt>
      <trkpt lat="45.2298" lon="0.78628">
        <ele>187</ele>
        <time>2019-02-08T20:07:41Z</time>
      </trkpt>
      <trkpt lat="45.22907" lon="0.78494">
        <ele>185</ele>
        <time>2019-02-08T20:08:41Z</time>
      </trkpt>
      <trkpt lat="45.22829" lon="0.78384">
        <ele>179</ele>
        <time>2019-02-08T20:09:41Z</time>
      </trkpt>
      <trkpt lat="45.22776" lon="0.78189">
        <ele>179</ele>
        <time>2019-02-08T20:10:41Z</time>
      </trkpt>
      <trkpt lat="45.22631" lon="0.78088">
        <ele>170</ele>
        <time>2019-02-08T20:11:41Z</time>
      </trkpt>
      <trkpt lat="45.22579" lon="0.77992">
        <ele>167</ele>
        <time>2019-02-08T20:12:41Z</time>
      </trkpt>
      <trkpt lat="45.22538" lon="0.77957">
        <ele>167</ele>
        <time>2019-02-08T20:13:41Z</time>
      </trkpt>
      <trkpt lat="45.22486" lon="0.77945">
        <ele>165</ele>
        <time>2019-02-08T20:14:41Z</time>
      </trkpt>
      <trkpt lat="45.22429" lon="0.77915">
        <ele>164</ele>
        <time>2019-02-08T20:15:41Z</time>
      </trkpt>
      <trkpt lat="45.2239" lon="0.77866">
        <ele>166</ele>
        <time>2019-02-08T20:16:41Z</time>
      </trkpt>
      <trkpt lat="45.22317" lon="0.7786">
        <ele>164</ele>
        <time>2019-02-08T20:17:41Z</time>
      </trkpt>
      <trkpt lat="45.22251" lon="0.77819">
        <ele>166</ele>
        <time>2019-02-08T20:18:41Z</time>
      </trkpt>
      <trkpt lat="45.22191" lon="0.77796">
        <ele>166</ele>
        <time>2019-02-08T20:19:41Z</time>
      </trkpt>
      <trkpt lat="45.22155" lon="0.77784">
        <ele>164</ele>
        <time>2019-02-08T20:20:41Z</time>
      </trkpt>
      <trkpt lat="45.22094" lon="0.77766">
        <ele>159</ele>
        <time>2019-02-08T20:21:41Z</time>
      </trkpt>
      <trkpt lat="45.22062" lon="0.77754">
        <ele>158</ele>
        <time>2019-02-08T20:22:41Z</time>
      </trkpt>
      <trkpt lat="45.22032" lon="0.7774">
        <ele>157</ele>
        <time>2019-02-08T20:23:41Z</time>
      </trkpt>
      <trkpt lat="45.22014" lon="0.77718">
        <ele>156</ele>
        <time>2019-02-08T20:24:41Z</time>
      </trkpt>
      <trkpt lat="45.21989" lon="0.77634">
        <ele>154</ele>
        <time>2019-02-08T20:25:41Z</time>
      </trkpt>
      <trkpt lat="45.21969" lon="0.77595">
        <ele>154</ele>
        <time>2019-02-08T20:26:41Z</time>
      </trkpt>
      <trkpt lat="45.21933" lon="0.77551">
        <ele>155</ele>
        <time>2019-02-08T20:27:41Z</time>
      </trkpt>
      <trkpt lat="45.21887" lon="0.77475">
        <ele>154</ele>
        <time>2019-02-08T20:28:41Z</time>
      </trkpt>
      <trkpt lat="45.21859" lon="0.77434">
        <ele>153</ele>
        <time>2019-02-08T20:29:41Z</time>
      </trkpt>
      <trkpt lat="45.21828" lon="0.77431">
        <ele>149</ele>
        <time>2019-02-08T20:30:41Z</time>
      </trkpt>
      <trkpt lat="45.21804" lon="0.77408">
        <ele>148</ele>
        <time>2019-02-08T20:31:41Z</time>
      </trkpt>
      <trkpt lat="45.21749" lon="0.77396">
        <ele>147</ele>
        <time>2019-02-08T20:32:41Z</time>
      </trkpt>
      <trkpt lat="45.2168" lon="0.77363">
        <ele>147</ele>
        <time>2019-02-08T20:33:41Z</time>
      </trkpt>
      <trkpt lat="45.2165" lon="0.7734">
        <ele>145</ele>
        <time>2019-02-08T20:34:41Z</time>
      </trkpt>
      <trkpt lat="45.21597" lon="0.77253">
        <ele>146</ele>
        <time>2019-02-08T20:35:41Z</time>
      </trkpt>
      <trkpt lat="45.21543" lon="0.77227">
        <ele>147</ele>
        <time>2019-02-08T20:36:41Z</time>
      </trkpt>
      <trkpt lat="45.21471" lon="0.77215">
        <ele>144</ele>
        <time>2019-02-08T20:37:41Z</time>
      </trkpt>
      <trkpt lat="45.21396" lon="0.77182">
        <ele>141</ele>
        <time>2019-02-08T20:38:41Z</time>
      </trkpt>
      <trkpt lat="45.21361" lon="0.77171">
        <ele>140</ele>
        <time>2019-02-08T20:39:41Z</time>
      </trkpt>
      <trkpt lat="45.21328" lon="0.77173">
        <ele>139</ele>
        <time>2019-02-08T20:40:41Z</time>
      </trkpt>
      <trkpt lat="45.21301" lon="0.77173">
        <ele>138</ele>
        <time>2019-02-08T20:41:41Z</time>
      </trkpt>
      <trkpt lat="45.2127" lon="0.77156">
        <ele>136</ele>
        <time>2019-02-08T20:42:41Z</time>
      </trkpt>
      <trkpt lat="45.21256" lon="0.77135">
        <ele>135</ele>
        <time>2019-02-08T20:43:41Z</time>
      </trkpt>
      <trkpt lat="45.21289" lon="0.77123">
        <ele>136</ele>
        <time>2019-02-08T20:44:41Z</time>
      </trkpt>
      <trkpt lat="45.21305" lon="0.77088">
        <ele>137</ele>
        <time>2019-02-08T20:45:41Z</time>
      </trkpt>
      <trkpt lat="45.21294" lon="0.76959">
        <ele>142</ele>
        <time>2019-02-08T20:46:41Z</time>
      </trkpt>
      <trkpt lat="45.21302" lon="0.76841">
        <ele>152</ele>
        <time>2019-02-08T20:47:41Z</time>
      </trkpt>
      <trkpt lat="45.21299" lon="0.76759">
        <ele>157</ele>
        <time>2019-02-08T20:48:41Z</time>
      </trkpt>
      <trkpt lat="45.21303" lon="0.76704">
        <ele>158</ele>
        <time>2019-02-08T20:49:41Z</time>
      </trkpt>
      <trkpt lat="45.21288" lon="0.76657">
        <ele>160</ele>
        <time>2019-02-08T20:50:41Z</time>
      </trkpt>
      <trkpt lat="45.2127" lon="0.76611">
        <ele>165</ele>
        <time>2019-02-08T20:51:41Z</time>
      </trkpt>
      <trkpt lat="45.21272" lon="0.76555">
        <ele>168</ele>
        <time>2019-02-08T20:52:41Z</time>
      </trkpt>
      <trkpt lat="45.21287" lon="0.76402">
        <ele>175</ele>
        <time>2019-02-08T20:53:41Z</time>
      </trkpt>
      <trkpt lat="45.21297" lon="0.7634">
        <ele>176</ele>
        <time>2019-02-08T20:54:41Z</time>
      </trkpt>
      <trkpt lat="45.21297" lon="0.76306">
        <ele>176</ele>
        <time>2019-02-08T20:55:41Z</time>
      </trkpt>
      <trkpt lat="45.21278" lon="0.76273">
        <ele>178</ele>
        <time>2019-02-08T20:56:41Z</time>
      </trkpt>
      <trkpt lat="45.21239" lon="0.76228">
        <ele>181</ele>
        <time>2019-02-08T20:57:41Z</time>
      </trkpt>
      <trkpt lat="45.21229" lon="0.76185">
        <ele>183</ele>
        <time>2019-02-08T20:58:41Z</time>
      </trkpt>
      <trkpt lat="45.21228" lon="0.76083">
        <ele>185</ele>
        <time>2019-02-08T20:59:41Z</time>
      </trkpt>
      <trkpt lat="45.2125" lon="0.75997">
        <ele>191</ele>
        <time>2019-02-08T21:00:41Z</time>
      </trkpt>
      <trkpt lat="45.21279" lon="0.7591">
        <ele>194</ele>
        <time>2019-02-08T21:01:41Z</time>
      </trkpt>
      <trkpt lat="45.21226" lon="0.75879">
        <ele>190</ele>
        <time>2019-02-08T21:02:41Z</time>
      </trkpt>
      <trkpt lat="45.21248" lon="0.75801">
        <ele>191</ele>
        <time>2019-02-08T21:03:41Z</time>
      </trkpt>
      <trkpt lat="45.21269" lon="0.75739">
        <ele>194</ele>
        <time>2019-02-08T21:04:41Z</time>
      </trkpt>
      <trkpt lat="45.21272" lon="0.75687">
        <ele>194</ele>
        <time>2019-02-08T21:05:41Z</time>
      </trkpt>
      <trkpt lat="45.21273" lon="0.75589">
        <ele>199</ele>
        <time>2019-02-08T21:06:41Z</time>
      </trkpt>
      <trkpt lat="45.2125" lon="0.75546">
        <ele>201</ele>
        <time>2019-02-08T21:07:41Z</time>
      </trkpt>
      <trkpt lat="45.21231" lon="0.7551">
        <ele>203</ele>
        <time>2019-02-08T21:08:41Z</time>
      </trkpt>
      <trkpt lat="45.21223" lon="0.7547">
        <ele>208</ele>
        <time>2019-02-08T21:09:41Z</time>
      </trkpt>
      <trkpt lat="45.21152" lon="0.7548">
        <ele>204</ele>
        <time>2019-02-08T21:10:41Z</time>
      </trkpt>
      <trkpt lat="45.2111" lon="0.75398">
        <ele>213</ele>
        <time>2019-02-08T21:11:41Z</time>
      </trkpt>
      <trkpt lat="45.21054" lon="0.75341">
        <ele>215</ele>
        <time>2019-02-08T21:12:41Z</time>
      </trkpt>
      <trkpt lat="45.21028" lon="0.75304">
        <ele>216</ele>
        <time>2019-02-08T21:13:41Z</time>
      </trkpt>
      <trkpt lat="45.21004" lon="0.75288">
        <ele>215</ele>
        <time>2019-02-08T21:14:41Z</time>
      </trkpt>
      <trkpt lat="45.20962" lon="0.75135">
        <ele>216</ele>
        <time>2019-02-08T21:15:41Z</time>
      </trkpt>
      <trkpt lat="45.20943" lon="0.75055">
        <ele>215</ele>
        <time>2019-02-08T21:16:41Z</time>
      </trkpt>
      <trkpt lat="45.20951" lon="0.74988">
        <ele>215</ele>
        <time>2019-02-08T21:17:41Z</time>
      </trkpt>
      <trkpt lat="45.20963" lon="0.7495">
        <ele>214</ele>
        <time>2019-02-08T21:18:41Z</time>
      </trkpt>
      <trkpt lat="45.2098" lon="0.74865">
        <ele>211</ele>
        <time>2019-02-08T21:19:41Z</time>
      </trkpt>
      <trkpt lat="45.20804" lon="0.74745">
        <ele>204</ele>
        <time>2019-02-08T21:20:41Z</time>
      </trkpt>
      <trkpt lat="45.20635" lon="0.74631">
        <ele>201</ele>
        <time>2019-02-08T21:21:41Z</time>
      </trkpt>
      <trkpt lat="45.20486" lon="0.74548">
        <ele>198</ele>
        <time>2019-02-08T21:22:41Z</time>
      </trkpt>
      <trkpt lat="45.20114" lon="0.74319">
        <ele>179</ele>
        <time>2019-02-08T21:23:41Z</time>
      </trkpt>
      <trkpt lat="45.2002" lon="0.74258">
        <ele>176</ele>
        <time>2019-02-08T21:24:41Z</time>
      </trkpt>
      <trkpt lat="45.19957" lon="0.74205">
        <ele>176</ele>
        <time>2019-02-08T21:25:41Z</time>
      </trkpt>
      <trkpt lat="45.19821" lon="0.74044">
        <ele>180</ele>
        <time>2019-02-08T21:26:41Z</time>
      </trkpt>
      <trkpt lat="45.19722" lon="0.73918">
        <ele>179</ele>
        <time>2019-02-08T21:27:41Z</time>
      </trkpt>
      <trkpt lat="45.19691" lon="0.73845">
        <ele>179</ele>
        <time>2019-02-08T21:28:41Z</time>
      </trkpt>
      <trkpt lat="45.19614" lon="0.7356">
        <ele>177</ele>
        <time>2019-02-08T21:29:41Z</time>
      </trkpt>
      <trkpt lat="45.19528" lon="0.73311">
        <ele>176</ele>
        <time>2019-02-08T21:30:41Z</time>
      </trkpt>
      <trkpt lat="45.19411" lon="0.72985">
        <ele>166</ele>
        <time>2019-02-08T21:31:41Z</time>
      </trkpt>
      <trkpt lat="45.19383" lon="0.729">
        <ele>163</ele>
        <time>2019-02-08T21:32:41Z</time>
      </trkpt>
      <trkpt lat="45.19355" lon="0.72815">
        <ele>160</ele>
        <time>2019-02-08T21:33:41Z</time>
      </trkpt>
      <trkpt lat="45.19329" lon="0.72755">
        <ele>157</ele>
        <time>2019-02-08T21:34:41Z</time>
      </trkpt>
      <trkpt lat="45.19262" lon="0.72697">
        <ele>152</ele>
        <time>2019-02-08T21:35:41Z</time>
      </trkpt>
      <trkpt lat="45.18932" lon="0.72357">
        <ele>129</ele>
        <time>2019-02-08T21:36:41Z</time>
      </trkpt>
      <trkpt lat="45.18749" lon="0.72177">
        <ele>113</ele>
        <time>2019-02-08T21:37:41Z</time>
      </trkpt>
      <trkpt lat="45.18715" lon="0.72182">
        <ele>111</ele>
        <time>2019-02-08T21:38:41Z</time>
      </trkpt>
      <trkpt lat="45.18682" lon="0.72186">
        <ele>110</ele>
        <time>2019-02-08T21:39:41Z</time>
      </trkpt>
      <trkpt lat="45.1866" lon="0.72187">
        <ele>110</ele>
        <time>2019-02-08T21:40:41Z</time>
      </trkpt>
      <trkpt lat="45.18638" lon="0.72199">
        <ele>111</ele>
        <time>2019-02-08T21:41:41Z</time>
      </trkpt>
      <trkpt lat="45.18627" lon="0.72245">
        <ele>112</ele>
        <time>2019-02-08T21:42:41Z</time>
      </trkpt>
      <trkpt lat="45.18628" lon="0.72288">
        <ele>111</ele>
        <time>2019-02-08T21:43:41Z</time>
      </trkpt>
      <trkpt lat="45.18492" lon="0.72278">
        <ele>111</ele>
        <time>2019-02-08T21:44:41Z</time>
      </trkpt>
      <trkpt lat="45.18412" lon="0.72279">
        <ele>106</ele>
        <time>2019-02-08T21:45:41Z</time>
      </trkpt>
      <trkpt lat="45.1841" lon="0.72267">
        <ele>106</ele>
        <time>2019-02-08T21:46:41Z</time>
      </trkpt>
      <trkpt lat="45.18382" lon="0.72246">
        <ele>105</ele>
        <time>2019-02-08T21:47:41Z</time>
      </trkpt>
      <trkpt lat="45.18374" lon="0.7223">
        <ele>106</ele>
        <time>2019-02-08T21:48:41Z</time>
      </trkpt>
      <trkpt lat="45.18366" lon="0.72185">
        <ele>109</ele>
        <time>2019-02-08T21:49:41Z</time>
      </trkpt>
    </trkseg>
  </trk>
</gpx>